sensor_id;sensor_type;location;lat;lon;timestamp;temperature;humidity
36442;DHT22;64346;50.820;16.274;2023-06-22T00:01:43;22.80;99.90
36442;DHT22;64346;50.820;16.274;2023-06-22T00:04:10;22.80;99.90
36442;DHT22;64346;50.820;16.274;2023-06-22T00:06:42;22.70;99.90
36442;DHT22;64346;50.820;16.274;2023-06-22T00:09:10;22.70;99.90
36442;DHT22;64346;50.820;16.274;2023-06-22T00:11:39;22.70;99.90
36442;DHT22;64346;50.820;16.274;2023-06-22T00:14:06;22.60;99.90
36442;DHT22;64346;50.820;16.274;2023-06-22T00:16:34;22.70;99.90
36442;DHT22;64346;50.820;16.274;2023-06-22T00:19:01;22.70;99.90
36442;DHT22;64346;50.820;16.274;2023-06-22T00:21:31;22.70;99.90
36442;DHT22;64346;50.820;16.274;2023-06-22T00:23:58;22.80;99.90
36442;DHT22;64346;50.820;16.274;2023-06-22T00:26:25;22.70;99.90
36442;DHT22;64346;50.820;16.274;2023-06-22T00:28:53;22.80;99.90
36442;DHT22;64346;50.820;16.274;2023-06-22T00:31:20;22.80;99.90
36442;DHT22;64346;50.820;16.274;2023-06-22T00:33:50;22.80;99.90
36442;DHT22;64346;50.820;16.274;2023-06-22T00:36:17;22.80;99.90
36442;DHT22;64346;50.820;16.274;2023-06-22T00:38:47;22.70;99.90
36442;DHT22;64346;50.820;16.274;2023-06-22T00:41:17;22.70;99.90
36442;DHT22;64346;50.820;16.274;2023-06-22T00:43:47;22.70;99.90
36442;DHT22;64346;50.820;16.274;2023-06-22T00:46:17;22.60;99.90
36442;DHT22;64346;50.820;16.274;2023-06-22T00:48:44;22.60;99.90
36442;DHT22;64346;50.820;16.274;2023-06-22T00:51:14;22.60;99.90
36442;DHT22;64346;50.820;16.274;2023-06-22T00:53:41;22.60;99.90
36442;DHT22;64346;50.820;16.274;2023-06-22T00:56:09;22.50;99.90
36442;DHT22;64346;50.820;16.274;2023-06-22T00:58:37;22.50;99.90
36442;DHT22;64346;50.820;16.274;2023-06-22T01:01:04;22.50;99.90
36442;DHT22;64346;50.820;16.274;2023-06-22T01:03:31;22.40;99.90
36442;DHT22;64346;50.820;16.274;2023-06-22T01:06:05;22.40;99.90
36442;DHT22;64346;50.820;16.274;2023-06-22T01:08:53;22.40;99.90
36442;DHT22;64346;50.820;16.274;2023-06-22T01:11:31;22.40;99.90
36442;DHT22;64346;50.820;16.274;2023-06-22T01:16:38;22.40;99.90
36442;DHT22;64346;50.820;16.274;2023-06-22T01:19:36;22.40;99.90
36442;DHT22;64346;50.820;16.274;2023-06-22T01:22:06;22.40;99.90
36442;DHT22;64346;50.820;16.274;2023-06-22T01:27:38;22.30;99.90
36442;DHT22;64346;50.820;16.274;2023-06-22T01:30:07;22.30;99.90
36442;DHT22;64346;50.820;16.274;2023-06-22T01:32:36;22.20;99.90
36442;DHT22;64346;50.820;16.274;2023-06-22T01:35:06;22.10;99.90
36442;DHT22;64346;50.820;16.274;2023-06-22T01:37:35;22.10;99.90
36442;DHT22;64346;50.820;16.274;2023-06-22T01:40:04;22.10;99.90
36442;DHT22;64346;50.820;16.274;2023-06-22T01:42:33;22.10;99.90
36442;DHT22;64346;50.820;16.274;2023-06-22T01:45:02;22.10;99.90
36442;DHT22;64346;50.820;16.274;2023-06-22T01:47:30;22.00;99.90
36442;DHT22;64346;50.820;16.274;2023-06-22T01:49:58;22.10;99.90
36442;DHT22;64346;50.820;16.274;2023-06-22T01:52:25;22.10;99.90
36442;DHT22;64346;50.820;16.274;2023-06-22T01:54:53;22.00;99.90
36442;DHT22;64346;50.820;16.274;2023-06-22T01:57:22;22.00;99.90
36442;DHT22;64346;50.820;16.274;2023-06-22T02:00:04;22.00;99.90
36442;DHT22;64346;50.820;16.274;2023-06-22T02:02:36;21.90;99.90
36442;DHT22;64346;50.820;16.274;2023-06-22T02:05:07;21.90;99.90
36442;DHT22;64346;50.820;16.274;2023-06-22T02:07:41;21.90;99.90
36442;DHT22;64346;50.820;16.274;2023-06-22T02:10:12;21.80;99.90
36442;DHT22;64346;50.820;16.274;2023-06-22T02:12:42;21.80;99.90
36442;DHT22;64346;50.820;16.274;2023-06-22T02:15:13;21.80;99.90
36442;DHT22;64346;50.820;16.274;2023-06-22T02:17:42;21.70;99.90
36442;DHT22;64346;50.820;16.274;2023-06-22T02:20:12;21.70;99.90
36442;DHT22;64346;50.820;16.274;2023-06-22T02:22:40;21.70;99.90
36442;DHT22;64346;50.820;16.274;2023-06-22T02:25:08;21.60;99.90
36442;DHT22;64346;50.820;16.274;2023-06-22T02:27:37;21.60;99.90
36442;DHT22;64346;50.820;16.274;2023-06-22T02:30:06;21.60;99.90
36442;DHT22;64346;50.820;16.274;2023-06-22T02:32:33;21.50;99.90
36442;DHT22;64346;50.820;16.274;2023-06-22T02:35:03;21.50;99.90
36442;DHT22;64346;50.820;16.274;2023-06-22T02:37:31;21.50;99.90
36442;DHT22;64346;50.820;16.274;2023-06-22T02:39:59;21.40;99.90
36442;DHT22;64346;50.820;16.274;2023-06-22T02:42:26;21.40;99.90
36442;DHT22;64346;50.820;16.274;2023-06-22T02:44:53;21.30;99.90
36442;DHT22;64346;50.820;16.274;2023-06-22T02:47:25;21.30;99.90
36442;DHT22;64346;50.820;16.274;2023-06-22T02:49:53;21.30;99.90
36442;DHT22;64346;50.820;16.274;2023-06-22T02:52:22;21.30;99.90
36442;DHT22;64346;50.820;16.274;2023-06-22T02:54:50;21.20;99.90
36442;DHT22;64346;50.820;16.274;2023-06-22T02:57:17;21.20;99.90
36442;DHT22;64346;50.820;16.274;2023-06-22T02:59:47;21.20;99.90
36442;DHT22;64346;50.820;16.274;2023-06-22T03:02:14;21.10;99.90
36442;DHT22;64346;50.820;16.274;2023-06-22T03:04:44;21.20;99.90
36442;DHT22;64346;50.820;16.274;2023-06-22T03:07:13;21.20;99.90
36442;DHT22;64346;50.820;16.274;2023-06-22T03:09:41;21.10;99.90
36442;DHT22;64346;50.820;16.274;2023-06-22T03:12:08;21.20;99.90
36442;DHT22;64346;50.820;16.274;2023-06-22T03:14:40;21.20;99.90
36442;DHT22;64346;50.820;16.274;2023-06-22T03:17:09;21.20;99.90
36442;DHT22;64346;50.820;16.274;2023-06-22T03:19:37;21.30;99.90
36442;DHT22;64346;50.820;16.274;2023-06-22T03:22:04;21.30;99.90
36442;DHT22;64346;50.820;16.274;2023-06-22T03:24:34;21.30;99.90
36442;DHT22;64346;50.820;16.274;2023-06-22T03:27:03;21.40;99.90
36442;DHT22;64346;50.820;16.274;2023-06-22T03:29:33;21.40;99.90
36442;DHT22;64346;50.820;16.274;2023-06-22T03:32:00;21.50;99.90
36442;DHT22;64346;50.820;16.274;2023-06-22T03:34:30;21.60;99.90
36442;DHT22;64346;50.820;16.274;2023-06-22T03:37:00;21.60;99.90
36442;DHT22;64346;50.820;16.274;2023-06-22T03:39:27;21.70;99.90
36442;DHT22;64346;50.820;16.274;2023-06-22T03:41:54;21.90;99.90
36442;DHT22;64346;50.820;16.274;2023-06-22T03:44:24;22.10;99.90
36442;DHT22;64346;50.820;16.274;2023-06-22T03:46:51;22.20;99.90
36442;DHT22;64346;50.820;16.274;2023-06-22T03:49:21;22.40;99.90
36442;DHT22;64346;50.820;16.274;2023-06-22T03:51:51;22.50;99.90
36442;DHT22;64346;50.820;16.274;2023-06-22T03:54:18;22.70;99.90
36442;DHT22;64346;50.820;16.274;2023-06-22T03:56:45;22.90;99.90
36442;DHT22;64346;50.820;16.274;2023-06-22T03:59:13;23.10;99.90
36442;DHT22;64346;50.820;16.274;2023-06-22T04:01:40;23.30;99.90
36442;DHT22;64346;50.820;16.274;2023-06-22T04:04:09;23.50;99.90
36442;DHT22;64346;50.820;16.274;2023-06-22T04:06:36;23.80;99.90
36442;DHT22;64346;50.820;16.274;2023-06-22T04:09:05;24.00;99.90
36442;DHT22;64346;50.820;16.274;2023-06-22T04:11:33;24.30;99.90
36442;DHT22;64346;50.820;16.274;2023-06-22T04:14:00;24.50;99.90
36442;DHT22;64346;50.820;16.274;2023-06-22T04:16:27;24.60;99.90
36442;DHT22;64346;50.820;16.274;2023-06-22T04:18:55;24.80;99.90
36442;DHT22;64346;50.820;16.274;2023-06-22T04:21:22;25.00;99.90
36442;DHT22;64346;50.820;16.274;2023-06-22T04:23:49;25.30;99.90
36442;DHT22;64346;50.820;16.274;2023-06-22T04:26:17;25.50;99.90
36442;DHT22;64346;50.820;16.274;2023-06-22T04:28:44;25.70;99.90
36442;DHT22;64346;50.820;16.274;2023-06-22T04:31:13;25.90;99.90
36442;DHT22;64346;50.820;16.274;2023-06-22T04:33:41;26.00;99.90
36442;DHT22;64346;50.820;16.274;2023-06-22T04:36:08;26.10;99.90
36442;DHT22;64346;50.820;16.274;2023-06-22T04:38:38;26.30;99.90
36442;DHT22;64346;50.820;16.274;2023-06-22T04:41:05;26.40;99.90
36442;DHT22;64346;50.820;16.274;2023-06-22T04:43:34;26.60;99.90
36442;DHT22;64346;50.820;16.274;2023-06-22T04:46:01;26.80;99.90
36442;DHT22;64346;50.820;16.274;2023-06-22T04:48:30;27.00;99.90
36442;DHT22;64346;50.820;16.274;2023-06-22T04:51:00;27.10;99.90
36442;DHT22;64346;50.820;16.274;2023-06-22T04:53:30;27.10;99.90
36442;DHT22;64346;50.820;16.274;2023-06-22T04:55:57;27.20;99.90
36442;DHT22;64346;50.820;16.274;2023-06-22T04:58:25;27.30;99.90
36442;DHT22;64346;50.820;16.274;2023-06-22T05:00:52;27.50;99.90
36442;DHT22;64346;50.820;16.274;2023-06-22T05:03:19;27.60;99.90
36442;DHT22;64346;50.820;16.274;2023-06-22T05:05:47;27.70;99.90
36442;DHT22;64346;50.820;16.274;2023-06-22T05:08:17;27.90;99.90
36442;DHT22;64346;50.820;16.274;2023-06-22T05:10:46;28.20;99.90
36442;DHT22;64346;50.820;16.274;2023-06-22T05:13:31;28.50;99.90
36442;DHT22;64346;50.820;16.274;2023-06-22T05:15:59;28.90;99.90
36442;DHT22;64346;50.820;16.274;2023-06-22T05:18:30;29.20;99.90
36442;DHT22;64346;50.820;16.274;2023-06-22T05:20:58;29.50;99.90
36442;DHT22;64346;50.820;16.274;2023-06-22T05:23:26;29.90;99.90
36442;DHT22;64346;50.820;16.274;2023-06-22T05:25:53;30.20;99.80
36442;DHT22;64346;50.820;16.274;2023-06-22T05:28:20;30.50;98.90
36442;DHT22;64346;50.820;16.274;2023-06-22T05:30:48;30.50;98.60
36442;DHT22;64346;50.820;16.274;2023-06-22T05:33:15;30.90;98.00
36442;DHT22;64346;50.820;16.274;2023-06-22T05:35:42;31.30;97.50
36442;DHT22;64346;50.820;16.274;2023-06-22T05:38:10;31.70;97.00
36442;DHT22;64346;50.820;16.274;2023-06-22T05:40:39;32.20;96.00
36442;DHT22;64346;50.820;16.274;2023-06-22T05:43:09;32.70;95.30
36442;DHT22;64346;50.820;16.274;2023-06-22T05:45:36;33.60;93.50
36442;DHT22;64346;50.820;16.274;2023-06-22T05:48:04;34.30;92.00
36442;DHT22;64346;50.820;16.274;2023-06-22T05:50:31;34.70;91.00
36442;DHT22;64346;50.820;16.274;2023-06-22T05:52:59;35.10;90.30
36442;DHT22;64346;50.820;16.274;2023-06-22T05:55:29;35.50;89.20
36442;DHT22;64346;50.820;16.274;2023-06-22T05:57:58;36.50;86.70
36442;DHT22;64346;50.820;16.274;2023-06-22T06:00:26;37.60;82.10
36442;DHT22;64346;50.820;16.274;2023-06-22T06:02:54;38.20;78.80
36442;DHT22;64346;50.820;16.274;2023-06-22T06:05:21;38.10;77.30
36442;DHT22;64346;50.820;16.274;2023-06-22T06:07:48;38.60;76.00
36442;DHT22;64346;50.820;16.274;2023-06-22T06:10:16;39.90;73.00
36442;DHT22;64346;50.820;16.274;2023-06-22T06:12:43;41.50;69.20
36442;DHT22;64346;50.820;16.274;2023-06-22T06:15:10;42.80;65.30
36442;DHT22;64346;50.820;16.274;2023-06-22T06:17:48;44.10;61.70
36442;DHT22;64346;50.820;16.274;2023-06-22T06:20:19;45.50;58.50
36442;DHT22;64346;50.820;16.274;2023-06-22T06:22:48;46.70;56.40
36442;DHT22;64346;50.820;16.274;2023-06-22T06:25:15;47.30;54.70
36442;DHT22;64346;50.820;16.274;2023-06-22T06:27:43;47.90;52.80
36442;DHT22;64346;50.820;16.274;2023-06-22T06:30:15;48.40;52.40
36442;DHT22;64346;50.820;16.274;2023-06-22T06:32:49;48.90;50.30
36442;DHT22;64346;50.820;16.274;2023-06-22T06:35:17;49.70;49.40
36442;DHT22;64346;50.820;16.274;2023-06-22T06:37:49;50.30;48.60
36442;DHT22;64346;50.820;16.274;2023-06-22T06:40:17;51.30;47.50
36442;DHT22;64346;50.820;16.274;2023-06-22T06:42:47;52.00;46.10
36442;DHT22;64346;50.820;16.274;2023-06-22T06:45:18;52.40;45.50
36442;DHT22;64346;50.820;16.274;2023-06-22T06:47:49;52.70;44.30
36442;DHT22;64346;50.820;16.274;2023-06-22T06:50:17;52.90;43.90
36442;DHT22;64346;50.820;16.274;2023-06-22T06:52:44;52.60;43.30
36442;DHT22;64346;50.820;16.274;2023-06-22T06:55:12;52.50;43.60
36442;DHT22;64346;50.820;16.274;2023-06-22T06:57:40;52.80;43.30
36442;DHT22;64346;50.820;16.274;2023-06-22T07:00:10;53.00;42.60
36442;DHT22;64346;50.820;16.274;2023-06-22T07:02:39;53.60;42.30
36442;DHT22;64346;50.820;16.274;2023-06-22T07:05:06;54.20;41.80
36442;DHT22;64346;50.820;16.274;2023-06-22T07:07:35;54.40;41.60
36442;DHT22;64346;50.820;16.274;2023-06-22T07:10:10;54.70;41.20
36442;DHT22;64346;50.820;16.274;2023-06-22T07:12:38;55.20;41.10
36442;DHT22;64346;50.820;16.274;2023-06-22T07:15:07;55.70;40.30
36442;DHT22;64346;50.820;16.274;2023-06-22T07:17:38;55.50;40.50
36442;DHT22;64346;50.820;16.274;2023-06-22T07:20:06;55.20;40.40
36442;DHT22;64346;50.820;16.274;2023-06-22T07:22:33;54.20;40.90
36442;DHT22;64346;50.820;16.274;2023-06-22T07:25:01;53.00;41.20
36442;DHT22;64346;50.820;16.274;2023-06-22T07:27:28;50.80;42.20
36442;DHT22;64346;50.820;16.274;2023-06-22T07:29:55;50.10;43.00
36442;DHT22;64346;50.820;16.274;2023-06-22T07:32:23;50.40;42.90
36442;DHT22;64346;50.820;16.274;2023-06-22T07:34:50;51.60;42.00
36442;DHT22;64346;50.820;16.274;2023-06-22T07:37:17;52.20;40.70
36442;DHT22;64346;50.820;16.274;2023-06-22T07:39:44;52.70;39.80
36442;DHT22;64346;50.820;16.274;2023-06-22T07:42:12;53.00;39.60
36442;DHT22;64346;50.820;16.274;2023-06-22T07:44:39;53.40;39.00
36442;DHT22;64346;50.820;16.274;2023-06-22T07:47:06;53.90;39.20
36442;DHT22;64346;50.820;16.274;2023-06-22T07:49:33;54.00;39.50
36442;DHT22;64346;50.820;16.274;2023-06-22T07:52:01;54.00;39.60
36442;DHT22;64346;50.820;16.274;2023-06-22T07:54:33;54.00;39.90
36442;DHT22;64346;50.820;16.274;2023-06-22T07:57:00;54.10;40.20
36442;DHT22;64346;50.820;16.274;2023-06-22T07:59:27;54.30;40.40
36442;DHT22;64346;50.820;16.274;2023-06-22T08:01:55;53.10;40.50
36442;DHT22;64346;50.820;16.274;2023-06-22T08:04:22;50.60;41.90
36442;DHT22;64346;50.820;16.274;2023-06-22T08:06:50;49.70;42.90
36442;DHT22;64346;50.820;16.274;2023-06-22T08:09:19;50.10;42.60
36442;DHT22;64346;50.820;16.274;2023-06-22T08:11:47;50.50;42.00
36442;DHT22;64346;50.820;16.274;2023-06-22T08:14:14;51.00;42.00
36442;DHT22;64346;50.820;16.274;2023-06-22T08:16:42;49.80;42.80
36442;DHT22;64346;50.820;16.274;2023-06-22T08:19:09;47.70;44.20
36442;DHT22;64346;50.820;16.274;2023-06-22T08:21:36;46.80;45.20
36442;DHT22;64346;50.820;16.274;2023-06-22T08:24:04;47.70;44.80
36442;DHT22;64346;50.820;16.274;2023-06-22T08:26:36;48.60;44.30
36442;DHT22;64346;50.820;16.274;2023-06-22T08:29:04;48.60;44.00
36442;DHT22;64346;50.820;16.274;2023-06-22T08:31:31;46.60;45.30
36442;DHT22;64346;50.820;16.274;2023-06-22T08:34:03;44.90;47.00
36442;DHT22;64346;50.820;16.274;2023-06-22T08:36:31;44.80;46.30
36442;DHT22;64346;50.820;16.274;2023-06-22T08:38:59;44.90;46.80
36442;DHT22;64346;50.820;16.274;2023-06-22T08:41:29;45.20;46.00
36442;DHT22;64346;50.820;16.274;2023-06-22T08:43:59;45.20;46.10
36442;DHT22;64346;50.820;16.274;2023-06-22T08:46:29;44.60;46.80
36442;DHT22;64346;50.820;16.274;2023-06-22T08:48:57;43.40;47.80
36442;DHT22;64346;50.820;16.274;2023-06-22T08:51:24;42.40;49.50
36442;DHT22;64346;50.820;16.274;2023-06-22T08:53:56;41.90;50.50
36442;DHT22;64346;50.820;16.274;2023-06-22T08:56:26;41.20;50.50
36442;DHT22;64346;50.820;16.274;2023-06-22T08:58:53;39.60;52.60
36442;DHT22;64346;50.820;16.274;2023-06-22T09:01:23;37.90;54.70
36442;DHT22;64346;50.820;16.274;2023-06-22T09:03:50;36.60;56.50
36442;DHT22;64346;50.820;16.274;2023-06-22T09:06:18;35.90;57.90
36442;DHT22;64346;50.820;16.274;2023-06-22T09:08:45;35.40;58.80
36442;DHT22;64346;50.820;16.274;2023-06-22T09:11:15;35.20;60.10
36442;DHT22;64346;50.820;16.274;2023-06-22T09:13:42;35.30;60.50
36442;DHT22;64346;50.820;16.274;2023-06-22T09:16:10;35.40;60.10
36442;DHT22;64346;50.820;16.274;2023-06-22T09:18:39;35.20;59.90
36442;DHT22;64346;50.820;16.274;2023-06-22T09:21:09;35.00;60.20
36442;DHT22;64346;50.820;16.274;2023-06-22T09:23:36;34.80;60.20
36442;DHT22;64346;50.820;16.274;2023-06-22T09:26:03;34.50;60.80
36442;DHT22;64346;50.820;16.274;2023-06-22T09:28:30;34.30;61.10
36442;DHT22;64346;50.820;16.274;2023-06-22T09:31:00;34.40;61.50
36442;DHT22;64346;50.820;16.274;2023-06-22T09:33:30;34.50;61.90
36442;DHT22;64346;50.820;16.274;2023-06-22T09:35:57;34.50;62.40
36442;DHT22;64346;50.820;16.274;2023-06-22T09:38:24;34.50;61.10
36442;DHT22;64346;50.820;16.274;2023-06-22T09:40:52;34.50;61.00
36442;DHT22;64346;50.820;16.274;2023-06-22T09:43:19;34.60;60.70
36442;DHT22;64346;50.820;16.274;2023-06-22T09:45:48;34.30;61.00
36442;DHT22;64346;50.820;16.274;2023-06-22T09:48:16;33.60;61.70
36442;DHT22;64346;50.820;16.274;2023-06-22T09:50:46;33.10;62.70
36442;DHT22;64346;50.820;16.274;2023-06-22T09:53:17;33.10;63.70
36442;DHT22;64346;50.820;16.274;2023-06-22T09:55:45;33.60;63.70
36442;DHT22;64346;50.820;16.274;2023-06-22T09:58:12;34.00;61.90
36442;DHT22;64346;50.820;16.274;2023-06-22T10:00:39;33.80;61.70
36442;DHT22;64346;50.820;16.274;2023-06-22T10:03:06;33.80;62.20
36442;DHT22;64346;50.820;16.274;2023-06-22T10:05:34;33.70;61.50
36442;DHT22;64346;50.820;16.274;2023-06-22T10:08:02;33.70;61.90
36442;DHT22;64346;50.820;16.274;2023-06-22T10:10:32;33.70;62.30
36442;DHT22;64346;50.820;16.274;2023-06-22T10:13:10;33.70;61.80
36442;DHT22;64346;50.820;16.274;2023-06-22T10:15:41;33.50;62.50
36442;DHT22;64346;50.820;16.274;2023-06-22T10:18:08;33.40;62.40
36442;DHT22;64346;50.820;16.274;2023-06-22T10:20:40;33.40;62.80
36442;DHT22;64346;50.820;16.274;2023-06-22T10:23:10;33.20;63.50
36442;DHT22;64346;50.820;16.274;2023-06-22T10:25:39;32.90;64.40
36442;DHT22;64346;50.820;16.274;2023-06-22T10:28:07;33.00;64.20
36442;DHT22;64346;50.820;16.274;2023-06-22T10:30:34;33.00;63.20
36442;DHT22;64346;50.820;16.274;2023-06-22T10:33:04;33.20;64.00
36442;DHT22;64346;50.820;16.274;2023-06-22T10:35:31;33.50;63.20
36442;DHT22;64346;50.820;16.274;2023-06-22T10:37:59;33.70;63.80
36442;DHT22;64346;50.820;16.274;2023-06-22T10:40:29;33.80;64.10
36442;DHT22;64346;50.820;16.274;2023-06-22T10:42:59;33.80;62.80
36442;DHT22;64346;50.820;16.274;2023-06-22T10:45:29;33.80;63.50
36442;DHT22;64346;50.820;16.274;2023-06-22T10:47:59;33.50;63.70
36442;DHT22;64346;50.820;16.274;2023-06-22T10:50:29;33.20;63.70
36442;DHT22;64346;50.820;16.274;2023-06-22T10:52:57;33.10;64.50
36442;DHT22;64346;50.820;16.274;2023-06-22T10:55:26;33.00;64.50
36442;DHT22;64346;50.820;16.274;2023-06-22T10:58:08;32.90;64.80
36442;DHT22;64346;50.820;16.274;2023-06-22T11:00:42;32.70;65.60
36442;DHT22;64346;50.820;16.274;2023-06-22T11:03:09;32.80;65.60
36442;DHT22;64346;50.820;16.274;2023-06-22T11:05:40;32.60;65.70
36442;DHT22;64346;50.820;16.274;2023-06-22T11:08:07;32.50;65.90
36442;DHT22;64346;50.820;16.274;2023-06-22T11:10:35;32.40;65.60
36442;DHT22;64346;50.820;16.274;2023-06-22T11:13:04;32.50;66.20
36442;DHT22;64346;50.820;16.274;2023-06-22T11:15:32;32.20;66.80
36442;DHT22;64346;50.820;16.274;2023-06-22T11:18:04;32.20;66.80
36442;DHT22;64346;50.820;16.274;2023-06-22T11:20:31;32.10;66.50
36442;DHT22;64346;50.820;16.274;2023-06-22T11:22:59;32.10;66.90
36442;DHT22;64346;50.820;16.274;2023-06-22T11:25:26;31.90;67.30
36442;DHT22;64346;50.820;16.274;2023-06-22T11:27:53;31.70;67.90
36442;DHT22;64346;50.820;16.274;2023-06-22T11:30:21;31.50;68.30
36442;DHT22;64346;50.820;16.274;2023-06-22T11:32:48;31.50;68.50
36442;DHT22;64346;50.820;16.274;2023-06-22T11:35:18;31.50;68.60
36442;DHT22;64346;50.820;16.274;2023-06-22T11:37:45;31.50;68.60
36442;DHT22;64346;50.820;16.274;2023-06-22T11:40:12;31.60;68.90
36442;DHT22;64346;50.820;16.274;2023-06-22T11:42:42;31.80;69.00
36442;DHT22;64346;50.820;16.274;2023-06-22T11:45:10;31.90;68.70
36442;DHT22;64346;50.820;16.274;2023-06-22T11:47:37;31.90;67.60
36442;DHT22;64346;50.820;16.274;2023-06-22T11:50:05;31.60;67.50
36442;DHT22;64346;50.820;16.274;2023-06-22T11:52:33;31.50;67.60
36442;DHT22;64346;50.820;16.274;2023-06-22T11:55:01;31.30;67.30
36442;DHT22;64346;50.820;16.274;2023-06-22T11:57:33;31.30;67.90
36442;DHT22;64346;50.820;16.274;2023-06-22T12:00:01;31.30;68.40
36442;DHT22;64346;50.820;16.274;2023-06-22T12:02:30;31.20;68.90
36442;DHT22;64346;50.820;16.274;2023-06-22T12:05:01;31.20;69.00
36442;DHT22;64346;50.820;16.274;2023-06-22T12:07:28;31.30;68.70
36442;DHT22;64346;50.820;16.274;2023-06-22T12:09:55;31.20;68.80
36442;DHT22;64346;50.820;16.274;2023-06-22T12:12:25;30.90;69.80
36442;DHT22;64346;50.820;16.274;2023-06-22T12:14:52;30.50;70.50
36442;DHT22;64346;50.820;16.274;2023-06-22T12:17:19;30.20;71.60
36442;DHT22;64346;50.820;16.274;2023-06-22T12:19:49;30.10;72.30
36442;DHT22;64346;50.820;16.274;2023-06-22T12:22:16;30.00;72.30
36442;DHT22;64346;50.820;16.274;2023-06-22T12:24:48;29.90;72.30
36442;DHT22;64346;50.820;16.274;2023-06-22T12:27:17;29.80;72.30
36442;DHT22;64346;50.820;16.274;2023-06-22T12:29:50;29.70;73.10
36442;DHT22;64346;50.820;16.274;2023-06-22T12:32:19;29.80;73.40
36442;DHT22;64346;50.820;16.274;2023-06-22T12:34:47;29.90;73.10
36442;DHT22;64346;50.820;16.274;2023-06-22T12:37:14;29.90;73.60
36442;DHT22;64346;50.820;16.274;2023-06-22T12:39:41;29.80;73.40
36442;DHT22;64346;50.820;16.274;2023-06-22T12:42:13;29.70;74.30
36442;DHT22;64346;50.820;16.274;2023-06-22T12:44:43;29.50;74.00
36442;DHT22;64346;50.820;16.274;2023-06-22T12:47:12;29.40;74.10
36442;DHT22;64346;50.820;16.274;2023-06-22T12:49:42;29.40;73.60
36442;DHT22;64346;50.820;16.274;2023-06-22T12:52:09;29.30;73.60
36442;DHT22;64346;50.820;16.274;2023-06-22T12:54:39;29.40;74.20
36442;DHT22;64346;50.820;16.274;2023-06-22T12:57:23;29.40;74.10
36442;DHT22;64346;50.820;16.274;2023-06-22T12:59:53;29.10;74.60
36442;DHT22;64346;50.820;16.274;2023-06-22T13:02:20;29.10;75.20
36442;DHT22;64346;50.820;16.274;2023-06-22T13:04:50;29.10;75.20
36442;DHT22;64346;50.820;16.274;2023-06-22T13:07:19;28.90;75.40
36442;DHT22;64346;50.820;16.274;2023-06-22T13:09:50;28.80;75.80
36442;DHT22;64346;50.820;16.274;2023-06-22T13:12:18;28.90;76.80
36442;DHT22;64346;50.820;16.274;2023-06-22T13:14:47;28.80;77.00
36442;DHT22;64346;50.820;16.274;2023-06-22T13:17:15;28.80;77.00
36442;DHT22;64346;50.820;16.274;2023-06-22T13:19:42;28.90;76.60
36442;DHT22;64346;50.820;16.274;2023-06-22T13:22:35;28.80;76.90
36442;DHT22;64346;50.820;16.274;2023-06-22T13:25:03;28.80;76.90
36442;DHT22;64346;50.820;16.274;2023-06-22T13:27:30;28.90;76.90
36442;DHT22;64346;50.820;16.274;2023-06-22T13:30:00;29.00;76.70
36442;DHT22;64346;50.820;16.274;2023-06-22T13:32:29;29.00;76.90
36442;DHT22;64346;50.820;16.274;2023-06-22T13:34:58;29.00;76.70
36442;DHT22;64346;50.820;16.274;2023-06-22T13:37:26;29.10;76.70
36442;DHT22;64346;50.820;16.274;2023-06-22T13:39:56;29.10;76.10
36442;DHT22;64346;50.820;16.274;2023-06-22T13:42:24;29.00;76.70
36442;DHT22;64346;50.820;16.274;2023-06-22T13:44:51;28.90;77.00
36442;DHT22;64346;50.820;16.274;2023-06-22T13:47:18;29.00;76.90
36442;DHT22;64346;50.820;16.274;2023-06-22T13:49:48;28.90;76.40
36442;DHT22;64346;50.820;16.274;2023-06-22T13:52:15;28.80;76.70
36442;DHT22;64346;50.820;16.274;2023-06-22T13:54:43;28.70;76.60
36442;DHT22;64346;50.820;16.274;2023-06-22T13:57:10;28.70;76.80
36442;DHT22;64346;50.820;16.274;2023-06-22T13:59:40;28.70;77.10
36442;DHT22;64346;50.820;16.274;2023-06-22T14:02:09;28.70;77.90
36442;DHT22;64346;50.820;16.274;2023-06-22T14:04:38;28.60;77.50
36442;DHT22;64346;50.820;16.274;2023-06-22T14:07:05;28.50;78.50
36442;DHT22;64346;50.820;16.274;2023-06-22T14:09:35;28.40;78.20
36442;DHT22;64346;50.820;16.274;2023-06-22T14:12:04;28.40;78.70
36442;DHT22;64346;50.820;16.274;2023-06-22T14:14:34;28.10;79.70
36442;DHT22;64346;50.820;16.274;2023-06-22T14:17:01;28.10;79.70
36442;DHT22;64346;50.820;16.274;2023-06-22T14:19:29;28.20;79.30
36442;DHT22;64346;50.820;16.274;2023-06-22T14:21:58;28.40;79.80
36442;DHT22;64346;50.820;16.274;2023-06-22T14:24:26;28.50;78.60
36442;DHT22;64346;50.820;16.274;2023-06-22T14:26:56;28.30;79.00
36442;DHT22;64346;50.820;16.274;2023-06-22T14:29:23;28.20;80.40
36442;DHT22;64346;50.820;16.274;2023-06-22T14:31:50;28.20;80.20
36442;DHT22;64346;50.820;16.274;2023-06-22T14:34:18;28.30;80.10
36442;DHT22;64346;50.820;16.274;2023-06-22T14:36:47;28.30;80.30
36442;DHT22;64346;50.820;16.274;2023-06-22T14:39:15;28.30;79.40
36442;DHT22;64346;50.820;16.274;2023-06-22T14:41:44;28.30;79.90
36442;DHT22;64346;50.820;16.274;2023-06-22T14:44:14;28.20;80.10
36442;DHT22;64346;50.820;16.274;2023-06-22T14:46:44;28.10;80.70
36442;DHT22;64346;50.820;16.274;2023-06-22T14:49:11;28.10;81.10
36442;DHT22;64346;50.820;16.274;2023-06-22T14:51:38;28.10;81.50
36442;DHT22;64346;50.820;16.274;2023-06-22T14:54:06;28.20;81.40
36442;DHT22;64346;50.820;16.274;2023-06-22T14:56:35;28.20;81.50
36442;DHT22;64346;50.820;16.274;2023-06-22T14:59:03;28.20;81.30
36442;DHT22;64346;50.820;16.274;2023-06-22T15:01:30;28.20;81.70
36442;DHT22;64346;50.820;16.274;2023-06-22T15:03:57;28.20;81.10
36442;DHT22;64346;50.820;16.274;2023-06-22T15:06:24;28.10;81.60
36442;DHT22;64346;50.820;16.274;2023-06-22T15:08:54;28.10;82.10
36442;DHT22;64346;50.820;16.274;2023-06-22T15:11:24;28.00;82.50
36442;DHT22;64346;50.820;16.274;2023-06-22T15:13:51;28.00;82.70
36442;DHT22;64346;50.820;16.274;2023-06-22T15:16:26;28.00;82.50
36442;DHT22;64346;50.820;16.274;2023-06-22T15:18:53;28.00;83.10
36442;DHT22;64346;50.820;16.274;2023-06-22T15:21:21;28.00;83.40
36442;DHT22;64346;50.820;16.274;2023-06-22T15:23:48;28.00;82.50
36442;DHT22;64346;50.820;16.274;2023-06-22T15:26:15;28.00;82.80
36442;DHT22;64346;50.820;16.274;2023-06-22T15:28:43;27.90;82.90
36442;DHT22;64346;50.820;16.274;2023-06-22T15:31:10;27.80;83.20